sensor_id;sensor_type;location;lat;lon;timestamp;P1;durP1;ratioP1;P2;durP2;ratioP2
40827;SDS011;26549;50.918;5.338;2023-12-22T00:02:12;11.85;;;2.88;;
40827;SDS011;26549;50.918;5.338;2023-12-22T00:04:37;15.40;;;2.70;;
40827;SDS011;26549;50.918;5.338;2023-12-22T00:07:03;12.60;;;2.25;;
40827;SDS011;26549;50.918;5.338;2023-12-22T00:09:30;8.85;;;2.55;;
40827;SDS011;26549;50.918;5.338;2023-12-22T00:11:56;8.93;;;2.00;;
40827;SDS011;26549;50.918;5.338;2023-12-22T00:14:21;11.55;;;2.75;;
40827;SDS011;26549;50.918;5.338;2023-12-22T00:16:47;7.65;;;3.05;;
40827;SDS011;26549;50.918;5.338;2023-12-22T00:19:13;17.55;;;2.47;;
40827;SDS011;26549;50.918;5.338;2023-12-22T00:21:38;16.10;;;3.35;;
40827;SDS011;26549;50.918;5.338;2023-12-22T00:24:04;12.68;;;2.85;;
40827;SDS011;26549;50.918;5.338;2023-12-22T00:26:30;6.72;;;2.40;;
40827;SDS011;26549;50.918;5.338;2023-12-22T00:28:56;6.40;;;1.92;;
40827;SDS011;26549;50.918;5.338;2023-12-22T00:31:22;14.82;;;2.75;;
40827;SDS011;26549;50.918;5.338;2023-12-22T00:33:47;12.50;;;3.92;;
40827;SDS011;26549;50.918;5.338;2023-12-22T00:36:14;8.43;;;2.67;;
40827;SDS011;26549;50.918;5.338;2023-12-22T00:38:40;11.02;;;2.80;;
40827;SDS011;26549;50.918;5.338;2023-12-22T00:41:06;13.18;;;3.42;;
40827;SDS011;26549;50.918;5.338;2023-12-22T00:43:32;15.82;;;2.85;;
40827;SDS011;26549;50.918;5.338;2023-12-22T00:45:57;13.00;;;2.42;;
40827;SDS011;26549;50.918;5.338;2023-12-22T00:48:23;5.32;;;2.83;;
40827;SDS011;26549;50.918;5.338;2023-12-22T00:50:49;10.73;;;3.70;;
40827;SDS011;26549;50.918;5.338;2023-12-22T00:53:14;14.80;;;2.40;;
40827;SDS011;26549;50.918;5.338;2023-12-22T00:55:40;12.10;;;3.13;;
40827;SDS011;26549;50.918;5.338;2023-12-22T00:58:06;7.43;;;2.03;;
40827;SDS011;26549;50.918;5.338;2023-12-22T01:00:31;12.38;;;3.22;;
40827;SDS011;26549;50.918;5.338;2023-12-22T01:02:57;6.93;;;1.63;;
40827;SDS011;26549;50.918;5.338;2023-12-22T01:05:23;8.63;;;2.60;;
40827;SDS011;26549;50.918;5.338;2023-12-22T01:07:49;6.78;;;2.58;;
40827;SDS011;26549;50.918;5.338;2023-12-22T01:10:14;8.15;;;2.60;;
40827;SDS011;26549;50.918;5.338;2023-12-22T01:12:40;8.73;;;2.33;;
40827;SDS011;26549;50.918;5.338;2023-12-22T01:15:06;7.78;;;2.00;;
40827;SDS011;26549;50.918;5.338;2023-12-22T01:17:32;11.27;;;1.70;;
40827;SDS011;26549;50.918;5.338;2023-12-22T01:19:58;6.78;;;2.00;;
40827;SDS011;26549;50.918;5.338;2023-12-22T01:22:23;9.23;;;2.17;;
40827;SDS011;26549;50.918;5.338;2023-12-22T01:24:49;11.73;;;2.20;;
40827;SDS011;26549;50.918;5.338;2023-12-22T01:27:15;12.98;;;2.83;;
40827;SDS011;26549;50.918;5.338;2023-12-22T01:29:40;8.95;;;1.85;;
40827;SDS011;26549;50.918;5.338;2023-12-22T01:32:08;9.85;;;2.60;;
40827;SDS011;26549;50.918;5.338;2023-12-22T01:34:34;8.38;;;2.70;;
40827;SDS011;26549;50.918;5.338;2023-12-22T01:37:00;5.35;;;1.25;;
40827;SDS011;26549;50.918;5.338;2023-12-22T01:39:25;7.35;;;1.90;;
40827;SDS011;26549;50.918;5.338;2023-12-22T01:41:51;6.57;;;3.13;;
40827;SDS011;26549;50.918;5.338;2023-12-22T01:44:17;13.30;;;2.55;;
40827;SDS011;26549;50.918;5.338;2023-12-22T01:46:43;6.95;;;2.42;;
40827;SDS011;26549;50.918;5.338;2023-12-22T01:49:08;8.10;;;2.30;;
40827;SDS011;26549;50.918;5.338;2023-12-22T01:51:35;15.73;;;3.22;;
40827;SDS011;26549;50.918;5.338;2023-12-22T01:54:04;10.77;;;2.83;;
40827;SDS011;26549;50.918;5.338;2023-12-22T01:56:31;6.75;;;1.73;;
40827;SDS011;26549;50.918;5.338;2023-12-22T01:58:58;10.30;;;2.08;;
40827;SDS011;26549;50.918;5.338;2023-12-22T02:01:25;9.15;;;2.10;;
40827;SDS011;26549;50.918;5.338;2023-12-22T02:03:53;7.82;;;2.28;;
40827;SDS011;26549;50.918;5.338;2023-12-22T02:06:19;11.05;;;2.55;;
40827;SDS011;26549;50.918;5.338;2023-12-22T02:08:46;15.48;;;3.47;;
40827;SDS011;26549;50.918;5.338;2023-12-22T02:11:12;11.98;;;3.13;;
40827;SDS011;26549;50.918;5.338;2023-12-22T02:13:39;14.57;;;3.53;;
40827;SDS011;26549;50.918;5.338;2023-12-22T02:16:11;8.60;;;2.08;;
40827;SDS011;26549;50.918;5.338;2023-12-22T02:18:48;8.77;;;2.70;;
40827;SDS011;26549;50.918;5.338;2023-12-22T02:21:16;9.57;;;2.10;;
40827;SDS011;26549;50.918;5.338;2023-12-22T02:23:42;11.57;;;2.03;;
40827;SDS011;26549;50.918;5.338;2023-12-22T02:26:17;12.18;;;2.92;;
40827;SDS011;26549;50.918;5.338;2023-12-22T02:29:07;5.97;;;1.80;;
40827;SDS011;26549;50.918;5.338;2023-12-22T02:31:37;5.65;;;2.58;;
40827;SDS011;26549;50.918;5.338;2023-12-22T02:34:13;15.23;;;2.45;;
40827;SDS011;26549;50.918;5.338;2023-12-22T02:36:43;8.73;;;2.13;;
40827;SDS011;26549;50.918;5.338;2023-12-22T02:39:09;6.07;;;2.03;;
40827;SDS011;26549;50.918;5.338;2023-12-22T02:41:37;9.25;;;2.03;;
40827;SDS011;26549;50.918;5.338;2023-12-22T02:44:03;11.82;;;1.80;;
40827;SDS011;26549;50.918;5.338;2023-12-22T02:46:30;6.97;;;2.38;;
40827;SDS011;26549;50.918;5.338;2023-12-22T02:48:55;9.05;;;2.03;;
40827;SDS011;26549;50.918;5.338;2023-12-22T02:51:21;12.50;;;2.33;;
40827;SDS011;26549;50.918;5.338;2023-12-22T02:53:47;8.55;;;2.10;;
40827;SDS011;26549;50.918;5.338;2023-12-22T02:56:13;16.33;;;4.63;;
40827;SDS011;26549;50.918;5.338;2023-12-22T02:58:38;14.32;;;2.72;;
40827;SDS011;26549;50.918;5.338;2023-12-22T03:01:04;12.40;;;2.97;;
40827;SDS011;26549;50.918;5.338;2023-12-22T03:03:30;13.80;;;2.42;;
40827;SDS011;26549;50.918;5.338;2023-12-22T03:05:56;12.75;;;3.75;;
40827;SDS011;26549;50.918;5.338;2023-12-22T03:08:21;16.60;;;4.03;;
40827;SDS011;26549;50.918;5.338;2023-12-22T03:10:47;17.70;;;3.13;;
40827;SDS011;26549;50.918;5.338;2023-12-22T03:13:13;7.88;;;2.63;;
40827;SDS011;26549;50.918;5.338;2023-12-22T03:15:39;7.15;;;2.17;;
40827;SDS011;26549;50.918;5.338;2023-12-22T03:18:04;13.98;;;3.58;;
40827;SDS011;26549;50.918;5.338;2023-12-22T03:20:30;8.63;;;3.10;;
40827;SDS011;26549;50.918;5.338;2023-12-22T03:22:56;10.68;;;2.10;;
40827;SDS011;26549;50.918;5.338;2023-12-22T03:25:22;13.48;;;2.55;;
40827;SDS011;26549;50.918;5.338;2023-12-22T03:27:49;15.07;;;3.17;;
40827;SDS011;26549;50.918;5.338;2023-12-22T03:30:15;9.05;;;2.58;;
40827;SDS011;26549;50.918;5.338;2023-12-22T03:32:41;5.60;;;2.03;;
40827;SDS011;26549;50.918;5.338;2023-12-22T03:35:07;14.00;;;4.85;;
40827;SDS011;26549;50.918;5.338;2023-12-22T03:37:33;12.05;;;2.47;;
40827;SDS011;26549;50.918;5.338;2023-12-22T03:39:58;5.13;;;1.77;;
40827;SDS011;26549;50.918;5.338;2023-12-22T03:42:24;14.85;;;3.78;;
40827;SDS011;26549;50.918;5.338;2023-12-22T03:44:51;9.05;;;2.92;;
40827;SDS011;26549;50.918;5.338;2023-12-22T03:47:17;6.10;;;1.83;;
40827;SDS011;26549;50.918;5.338;2023-12-22T03:49:43;6.78;;;2.10;;
40827;SDS011;26549;50.918;5.338;2023-12-22T03:52:08;10.68;;;1.92;;
40827;SDS011;26549;50.918;5.338;2023-12-22T03:54:35;7.75;;;2.17;;
40827;SDS011;26549;50.918;5.338;2023-12-22T03:57:02;5.60;;;1.35;;
40827;SDS011;26549;50.918;5.338;2023-12-22T03:59:28;6.72;;;1.75;;
40827;SDS011;26549;50.918;5.338;2023-12-22T04:01:53;6.97;;;2.05;;
40827;SDS011;26549;50.918;5.338;2023-12-22T04:04:20;6.82;;;2.38;;
40827;SDS011;26549;50.918;5.338;2023-12-22T04:06:48;6.82;;;1.65;;
40827;SDS011;26549;50.918;5.338;2023-12-22T04:09:14;6.32;;;1.75;;
40827;SDS011;26549;50.918;5.338;2023-12-22T04:11:39;5.30;;;2.83;;
40827;SDS011;26549;50.918;5.338;2023-12-22T04:14:06;7.80;;;2.00;;
40827;SDS011;26549;50.918;5.338;2023-12-22T04:16:32;5.60;;;1.73;;
40827;SDS011;26549;50.918;5.338;2023-12-22T04:19:00;7.88;;;1.55;;
40827;SDS011;26549;50.918;5.338;2023-12-22T04:21:26;7.05;;;2.58;;
40827;SDS011;26549;50.918;5.338;2023-12-22T04:23:52;13.25;;;3.63;;
40827;SDS011;26549;50.918;5.338;2023-12-22T04:26:19;9.15;;;2.25;;
40827;SDS011;26549;50.918;5.338;2023-12-22T04:28:45;6.47;;;1.70;;
40827;SDS011;26549;50.918;5.338;2023-12-22T04:31:11;7.57;;;1.88;;
40827;SDS011;26549;50.918;5.338;2023-12-22T04:33:38;9.35;;;2.85;;
40827;SDS011;26549;50.918;5.338;2023-12-22T04:36:03;8.90;;;2.42;;
40827;SDS011;26549;50.918;5.338;2023-12-22T04:38:29;6.18;;;2.55;;
40827;SDS011;26549;50.918;5.338;2023-12-22T04:40:55;9.30;;;2.17;;
40827;SDS011;26549;50.918;5.338;2023-12-22T04:43:21;10.63;;;3.15;;
40827;SDS011;26549;50.918;5.338;2023-12-22T04:45:47;7.22;;;2.42;;
40827;SDS011;26549;50.918;5.338;2023-12-22T04:48:12;10.48;;;2.95;;
40827;SDS011;26549;50.918;5.338;2023-12-22T04:50:38;5.97;;;2.63;;
40827;SDS011;26549;50.918;5.338;2023-12-22T04:53:04;8.18;;;2.63;;
40827;SDS011;26549;50.918;5.338;2023-12-22T04:55:30;8.75;;;2.13;;
40827;SDS011;26549;50.918;5.338;2023-12-22T04:57:55;14.52;;;3.75;;
40827;SDS011;26549;50.918;5.338;2023-12-22T05:00:22;10.10;;;3.35;;
40827;SDS011;26549;50.918;5.338;2023-12-22T05:02:48;10.13;;;3.72;;
40827;SDS011;26549;50.918;5.338;2023-12-22T05:05:16;12.60;;;2.95;;
40827;SDS011;26549;50.918;5.338;2023-12-22T05:07:41;12.45;;;2.95;;
40827;SDS011;26549;50.918;5.338;2023-12-22T05:10:07;10.18;;;1.88;;
40827;SDS011;26549;50.918;5.338;2023-12-22T05:12:33;8.90;;;4.10;;
40827;SDS011;26549;50.918;5.338;2023-12-22T05:14:59;11.52;;;2.53;;
40827;SDS011;26549;50.918;5.338;2023-12-22T05:17:25;9.90;;;2.38;;
40827;SDS011;26549;50.918;5.338;2023-12-22T05:19:51;14.90;;;4.30;;
40827;SDS011;26549;50.918;5.338;2023-12-22T05:22:16;14.32;;;2.97;;
40827;SDS011;26549;50.918;5.338;2023-12-22T05:24:42;21.90;;;2.83;;
40827;SDS011;26549;50.918;5.338;2023-12-22T05:27:08;8.52;;;1.98;;
40827;SDS011;26549;50.918;5.338;2023-12-22T05:29:34;18.08;;;3.60;;
40827;SDS011;26549;50.918;5.338;2023-12-22T05:32:00;16.67;;;2.95;;
40827;SDS011;26549;50.918;5.338;2023-12-22T05:34:25;15.85;;;3.83;;
40827;SDS011;26549;50.918;5.338;2023-12-22T05:36:51;15.13;;;2.85;;
40827;SDS011;26549;50.918;5.338;2023-12-22T05:39:17;19.33;;;4.55;;
40827;SDS011;26549;50.918;5.338;2023-12-22T05:41:43;13.27;;;3.95;;
40827;SDS011;26549;50.918;5.338;2023-12-22T05:44:09;16.45;;;4.68;;
40827;SDS011;26549;50.918;5.338;2023-12-22T05:46:37;13.10;;;4.10;;
40827;SDS011;26549;50.918;5.338;2023-12-22T05:49:03;15.30;;;3.17;;
40827;SDS011;26549;50.918;5.338;2023-12-22T05:51:35;13.77;;;3.45;;
40827;SDS011;26549;50.918;5.338;2023-12-22T05:54:02;16.98;;;5.15;;
40827;SDS011;26549;50.918;5.338;2023-12-22T05:56:27;14.48;;;3.85;;
40827;SDS011;26549;50.918;5.338;2023-12-22T05:58:54;13.25;;;3.90;;
40827;SDS011;26549;50.918;5.338;2023-12-22T06:01:20;9.40;;;3.80;;
40827;SDS011;26549;50.918;5.338;2023-12-22T06:03:46;14.13;;;3.03;;
40827;SDS011;26549;50.918;5.338;2023-12-22T06:06:12;17.80;;;3.83;;
40827;SDS011;26549;50.918;5.338;2023-12-22T06:08:38;16.27;;;4.20;;
40827;SDS011;26549;50.918;5.338;2023-12-22T06:11:04;14.52;;;5.43;;
40827;SDS011;26549;50.918;5.338;2023-12-22T06:13:30;14.02;;;2.47;;
40827;SDS011;26549;50.918;5.338;2023-12-22T06:15:56;13.75;;;3.63;;
40827;SDS011;26549;50.918;5.338;2023-12-22T06:18:22;20.33;;;3.30;;
40827;SDS011;26549;50.918;5.338;2023-12-22T06:20:48;14.52;;;3.65;;
40827;SDS011;26549;50.918;5.338;2023-12-22T06:23:14;19.58;;;4.47;;
40827;SDS011;26549;50.918;5.338;2023-12-22T06:25:40;13.90;;;4.03;;
40827;SDS011;26549;50.918;5.338;2023-12-22T06:28:05;17.73;;;3.83;;
40827;SDS011;26549;50.918;5.338;2023-12-22T06:30:31;26.13;;;3.85;;
40827;SDS011;26549;50.918;5.338;2023-12-22T06:32:57;17.58;;;4.38;;
40827;SDS011;26549;50.918;5.338;2023-12-22T06:35:23;14.63;;;2.90;;
40827;SDS011;26549;50.918;5.338;2023-12-22T06:37:50;22.15;;;4.15;;
40827;SDS011;26549;50.918;5.338;2023-12-22T06:40:17;28.63;;;5.43;;
40827;SDS011;26549;50.918;5.338;2023-12-22T06:42:44;23.17;;;4.80;;
40827;SDS011;26549;50.918;5.338;2023-12-22T06:45:10;16.58;;;4.25;;
40827;SDS011;26549;50.918;5.338;2023-12-22T06:47:36;18.88;;;4.22;;
40827;SDS011;26549;50.918;5.338;2023-12-22T06:50:03;13.15;;;4.03;;
40827;SDS011;26549;50.918;5.338;2023-12-22T06:52:29;14.88;;;3.17;;
40827;SDS011;26549;50.918;5.338;2023-12-22T06:54:55;23.30;;;4.95;;
40827;SDS011;26549;50.918;5.338;2023-12-22T06:57:24;24.95;;;6.25;;
40827;SDS011;26549;50.918;5.338;2023-12-22T06:59:57;19.23;;;3.67;;
40827;SDS011;26549;50.918;5.338;2023-12-22T07:02:33;14.55;;;3.97;;
40827;SDS011;26549;50.918;5.338;2023-12-22T07:10:48;18.55;;;4.65;;
40827;SDS011;26549;50.918;5.338;2023-12-22T07:13:19;16.77;;;3.83;;
40827;SDS011;26549;50.918;5.338;2023-12-22T07:15:44;14.82;;;2.83;;
40827;SDS011;26549;50.918;5.338;2023-12-22T07:18:10;13.38;;;3.65;;
40827;SDS011;26549;50.918;5.338;2023-12-22T07:20:43;18.48;;;3.78;;
40827;SDS011;26549;50.918;5.338;2023-12-22T07:23:24;14.25;;;3.70;;
40827;SDS011;26549;50.918;5.338;2023-12-22T07:25:50;16.67;;;4.20;;
40827;SDS011;26549;50.918;5.338;2023-12-22T07:28:16;14.60;;;2.88;;
40827;SDS011;26549;50.918;5.338;2023-12-22T07:30:42;24.42;;;4.90;;
40827;SDS011;26549;50.918;5.338;2023-12-22T07:33:08;13.05;;;3.60;;
40827;SDS011;26549;50.918;5.338;2023-12-22T07:35:34;24.63;;;4.78;;
40827;SDS011;26549;50.918;5.338;2023-12-22T07:38:00;8.23;;;2.67;;
40827;SDS011;26549;50.918;5.338;2023-12-22T07:40:28;11.95;;;2.22;;
40827;SDS011;26549;50.918;5.338;2023-12-22T07:42:56;15.15;;;2.72;;
40827;SDS011;26549;50.918;5.338;2023-12-22T07:45:22;14.18;;;4.15;;
40827;SDS011;26549;50.918;5.338;2023-12-22T07:47:48;12.68;;;3.30;;
40827;SDS011;26549;50.918;5.338;2023-12-22T07:50:14;15.10;;;3.10;;
40827;SDS011;26549;50.918;5.338;2023-12-22T07:52:40;14.73;;;3.45;;
40827;SDS011;26549;50.918;5.338;2023-12-22T07:55:09;14.85;;;2.88;;
40827;SDS011;26549;50.918;5.338;2023-12-22T07:57:40;17.45;;;3.90;;
40827;SDS011;26549;50.918;5.338;2023-12-22T08:00:15;11.13;;;3.50;;
40827;SDS011;26549;50.918;5.338;2023-12-22T08:02:44;9.32;;;2.28;;
40827;SDS011;26549;50.918;5.338;2023-12-22T08:05:11;5.15;;;2.25;;
40827;SDS011;26549;50.918;5.338;2023-12-22T08:07:43;10.52;;;1.85;;
40827;SDS011;26549;50.918;5.338;2023-12-22T08:10:19;8.70;;;2.33;;
40827;SDS011;26549;50.918;5.338;2023-12-22T08:13:02;10.65;;;2.63;;
40827;SDS011;26549;50.918;5.338;2023-12-22T08:15:29;6.30;;;1.75;;
40827;SDS011;26549;50.918;5.338;2023-12-22T08:17:59;9.45;;;3.47;;
40827;SDS011;26549;50.918;5.338;2023-12-22T08:20:27;8.60;;;2.08;;
40827;SDS011;26549;50.918;5.338;2023-12-22T08:23:01;5.95;;;2.05;;
40827;SDS011;26549;50.918;5.338;2023-12-22T08:25:47;14.32;;;3.58;;
40827;SDS011;26549;50.918;5.338;2023-12-22T08:28:17;7.25;;;2.03;;
40827;SDS011;26549;50.918;5.338;2023-12-22T08:30:52;7.18;;;1.90;;
40827;SDS011;26549;50.918;5.338;2023-12-22T08:33:18;6.72;;;2.58;;
40827;SDS011;26549;50.918;5.338;2023-12-22T08:35:44;5.90;;;3.15;;
40827;SDS011;26549;50.918;5.338;2023-12-22T08:38:10;6.93;;;1.42;;
40827;SDS011;26549;50.918;5.338;2023-12-22T08:40:38;14.73;;;2.10;;
40827;SDS011;26549;50.918;5.338;2023-12-22T08:43:04;6.60;;;1.98;;
40827;SDS011;26549;50.918;5.338;2023-12-22T08:45:37;9.70;;;2.20;;
40827;SDS011;26549;50.918;5.338;2023-12-22T08:48:05;6.70;;;1.98;;
40827;SDS011;26549;50.918;5.338;2023-12-22T08:50:33;7.22;;;2.15;;
40827;SDS011;26549;50.918;5.338;2023-12-22T08:53:02;7.75;;;2.00;;
40827;SDS011;26549;50.918;5.338;2023-12-22T08:55:32;4.80;;;1.42;;
40827;SDS011;26549;50.918;5.338;2023-12-22T08:58:08;8.27;;;1.70;;
40827;SDS011;26549;50.918;5.338;2023-12-22T09:00:34;12.00;;;2.70;;
40827;SDS011;26549;50.918;5.338;2023-12-22T09:03:02;4.97;;;2.75;;
40827;SDS011;26549;50.918;5.338;2023-12-22T09:05:32;4.78;;;1.50;;
40827;SDS011;26549;50.918;5.338;2023-12-22T09:08:04;4.32;;;1.50;;
40827;SDS011;26549;50.918;5.338;2023-12-22T09:10:31;4.57;;;1.58;;
40827;SDS011;26549;50.918;5.338;2023-12-22T09:12:57;5.65;;;1.65;;
40827;SDS011;26549;50.918;5.338;2023-12-22T09:15:24;9.23;;;1.98;;
40827;SDS011;26549;50.918;5.338;2023-12-22T09:17:51;9.43;;;2.53;;
40827;SDS011;26549;50.918;5.338;2023-12-22T09:20:19;6.72;;;2.00;;
40827;SDS011;26549;50.918;5.338;2023-12-22T09:22:48;6.05;;;2.15;;
40827;SDS011;26549;50.918;5.338;2023-12-22T09:25:14;3.70;;;2.30;;
40827;SDS011;26549;50.918;5.338;2023-12-22T09:27:53;4.97;;;1.55;;
40827;SDS011;26549;50.918;5.338;2023-12-22T09:30:19;5.03;;;1.25;;
40827;SDS011;26549;50.918;5.338;2023-12-22T09:32:46;2.85;;;2.17;;
40827;SDS011;26549;50.918;5.338;2023-12-22T09:35:12;2.35;;;1.50;;
40827;SDS011;26549;50.918;5.338;2023-12-22T09:37:38;3.33;;;1.20;;
40827;SDS011;26549;50.918;5.338;2023-12-22T09:40:22;4.40;;;1.90;;
40827;SDS011;26549;50.918;5.338;2023-12-22T09:42:55;4.80;;;1.50;;
40827;SDS011;26549;50.918;5.338;2023-12-22T09:45:26;2.65;;;1.50;;
40827;SDS011;26549;50.918;5.338;2023-12-22T09:48:06;5.78;;;2.35;;
40827;SDS011;26549;50.918;5.338;2023-12-22T09:50:46;3.10;;;2.00;;
40827;SDS011;26549;50.918;5.338;2023-12-22T09:53:16;1.65;;;1.20;;
40827;SDS011;26549;50.918;5.338;2023-12-22T09:55:47;3.45;;;1.20;;
40827;SDS011;26549;50.918;5.338;2023-12-22T09:58:18;3.28;;;1.25;;
40827;SDS011;26549;50.918;5.338;2023-12-22T10:00:53;2.78;;;1.20;;
40827;SDS011;26549;50.918;5.338;2023-12-22T10:03:35;2.50;;;1.15;;
40827;SDS011;26549;50.918;5.338;2023-12-22T10:06:13;3.72;;;2.42;;
40827;SDS011;26549;50.918;5.338;2023-12-22T10:08:41;1.98;;;1.45;;
40827;SDS011;26549;50.918;5.338;2023-12-22T10:11:07;0.90;;;0.90;;
40827;SDS011;26549;50.918;5.338;2023-12-22T10:13:36;4.57;;;1.48;;
40827;SDS011;26549;50.918;5.338;2023-12-22T10:16:04;3.40;;;1.30;;
40827;SDS011;26549;50.918;5.338;2023-12-22T10:18:33;6.75;;;1.48;;
40827;SDS011;26549;50.918;5.338;2023-12-22T10:21:09;4.45;;;1.75;;
40827;SDS011;26549;50.918;5.338;2023-12-22T10:23:52;3.35;;;1.15;;
40827;SDS011;26549;50.918;5.338;2023-12-22T10:26:37;0.82;;;0.80;;
40827;SDS011;26549;50.918;5.338;2023-12-22T10:29:15;1.70;;;1.25;;
40827;SDS011;26549;50.918;5.338;2023-12-22T10:31:45;1.85;;;1.00;;
40827;SDS011;26549;50.918;5.338;2023-12-22T10:34:13;2.85;;;1.90;;
40827;SDS011;26549;50.918;5.338;2023-12-22T10:36:39;1.20;;;1.10;;
40827;SDS011;26549;50.918;5.338;2023-12-22T10:39:08;3.58;;;2.38;;
40827;SDS011;26549;50.918;5.338;2023-12-22T10:41:35;4.40;;;1.25;;
40827;SDS011;26549;50.918;5.338;2023-12-22T10:44:04;1.77;;;1.27;;
40827;SDS011;26549;50.918;5.338;2023-12-22T10:46:33;2.78;;;1.20;;
40827;SDS011;26549;50.918;5.338;2023-12-22T10:49:00;2.28;;;1.20;;
40827;SDS011;26549;50.918;5.338;2023-12-22T10:51:28;3.25;;;1.90;;
40827;SDS011;26549;50.918;5.338;2023-12-22T10:53:58;4.55;;;1.17;;
40827;SDS011;26549;50.918;5.338;2023-12-22T10:56:24;2.33;;;0.98;;
40827;SDS011;26549;50.918;5.338;2023-12-22T10:58:51;3.75;;;1.00;;
40827;SDS011;26549;50.918;5.338;2023-12-22T11:01:18;1.42;;;0.65;;
40827;SDS011;26549;50.918;5.338;2023-12-22T11:03:48;2.05;;;1.10;;
40827;SDS011;26549;50.918;5.338;2023-12-22T11:06:16;4.30;;;1.08;;
40827;SDS011;26549;50.918;5.338;2023-12-22T11:08:44;2.90;;;1.05;;
40827;SDS011;26549;50.918;5.338;2023-12-22T11:11:24;2.80;;;1.02;;
40827;SDS011;26549;50.918;5.338;2023-12-22T11:13:59;1.77;;;0.90;;
40827;SDS011;26549;50.918;5.338;2023-12-22T11:16:27;2.45;;;0.88;;
40827;SDS011;26549;50.918;5.338;2023-12-22T11:18:56;2.72;;;0.88;;
40827;SDS011;26549;50.918;5.338;2023-12-22T11:21:34;1.60;;;0.93;;
40827;SDS011;26549;50.918;5.338;2023-12-22T11:24:05;1.50;;;1.20;;
40827;SDS011;26549;50.918;5.338;2023-12-22T11:26:32;3.70;;;0.88;;
40827;SDS011;26549;50.918;5.338;2023-12-22T11:29:02;4.88;;;0.70;;
40827;SDS011;26549;50.918;5.338;2023-12-22T11:31:28;1.30;;;0.93;;
40827;SDS011;26549;50.918;5.338;2023-12-22T11:33:57;2.30;;;1.90;;
40827;SDS011;26549;50.918;5.338;2023-12-22T11:36:27;3.40;;;1.25;;
40827;SDS011;26549;50.918;5.338;2023-12-22T11:38:56;4.03;;;1.02;;
40827;SDS011;26549;50.918;5.338;2023-12-22T11:41:29;2.60;;;1.05;;
40827;SDS011;26549;50.918;5.338;2023-12-22T11:43:58;5.13;;;1.10;;
40827;SDS011;26549;50.918;5.338;2023-12-22T11:46:24;3.00;;;2.25;;
40827;SDS011;26549;50.918;5.338;2023-12-22T11:49:01;3.50;;;1.08;;
40827;SDS011;26549;50.918;5.338;2023-12-22T11:51:31;3.00;;;1.05;;
40827;SDS011;26549;50.918;5.338;2023-12-22T11:53:59;3.60;;;0.98;;
40827;SDS011;26549;50.918;5.338;2023-12-22T11:56:26;2.13;;;0.75;;
40827;SDS011;26549;50.918;5.338;2023-12-22T11:58:51;2.85;;;1.20;;
40827;SDS011;26549;50.918;5.338;2023-12-22T12:01:22;1.48;;;0.60;;
40827;SDS011;26549;50.918;5.338;2023-12-22T12:06:23;9.18;;;1.08;;
40827;SDS011;26549;50.918;5.338;2023-12-22T12:08:57;4.68;;;1.13;;
40827;SDS011;26549;50.918;5.338;2023-12-22T12:17:26;1.17;;;1.02;;
40827;SDS011;26549;50.918;5.338;2023-12-22T12:19:54;1.13;;;1.02;;
40827;SDS011;26549;50.918;5.338;2023-12-22T12:22:19;5.53;;;2.60;;
40827;SDS011;26549;50.918;5.338;2023-12-22T12:24:56;1.17;;;1.00;;
40827;SDS011;26549;50.918;5.338;2023-12-22T12:27:23;2.35;;;1.40;;
40827;SDS011;26549;50.918;5.338;2023-12-22T12:29:49;0.30;;;0.30;;
40827;SDS011;26549;50.918;5.338;2023-12-22T12:32:16;1.40;;;1.02;;
40827;SDS011;26549;50.918;5.338;2023-12-22T12:34:45;3.05;;;0.60;;
40827;SDS011;26549;50.918;5.338;2023-12-22T12:37:13;2.78;;;0.90;;
40827;SDS011;26549;50.918;5.338;2023-12-22T12:39:42;4.90;;;0.70;;
40827;SDS011;26549;50.918;5.338;2023-12-22T12:42:10;0.77;;;0.70;;
40827;SDS011;26549;50.918;5.338;2023-12-22T12:44:44;3.28;;;0.80;;
40827;SDS011;26549;50.918;5.338;2023-12-22T12:47:13;4.35;;;1.48;;
40827;SDS011;26549;50.918;5.338;2023-12-22T12:49:43;2.40;;;1.15;;
40827;SDS011;26549;50.918;5.338;2023-12-22T12:52:17;6.25;;;1.10;;
40827;SDS011;26549;50.918;5.338;2023-12-22T12:54:44;3.45;;;1.17;;
40827;SDS011;26549;50.918;5.338;2023-12-22T12:57:14;3.53;;;0.80;;
40827;SDS011;26549;50.918;5.338;2023-12-22T12:59:46;2.60;;;1.00;;
40827;SDS011;26549;50.918;5.338;2023-12-22T13:02:13;2.83;;;1.45;;
40827;SDS011;26549;50.918;5.338;2023-12-22T13:04:49;4.35;;;2.03;;
40827;SDS011;26549;50.918;5.338;2023-12-22T13:07:22;5.18;;;0.73;;
40827;SDS011;26549;50.918;5.338;2023-12-22T13:09:49;5.55;;;1.75;;
40827;SDS011;26549;50.918;5.338;2023-12-22T13:12:18;4.47;;;0.73;;
40827;SDS011;26549;50.918;5.338;2023-12-22T13:14:44;1.83;;;0.68;;
40827;SDS011;26549;50.918;5.338;2023-12-22T13:17:10;4.63;;;0.90;;
40827;SDS011;26549;50.918;5.338;2023-12-22T13:19:36;0.43;;;0.43;;
40827;SDS011;26549;50.918;5.338;2023-12-22T13:22:05;1.92;;;0.80;;
40827;SDS011;26549;50.918;5.338;2023-12-22T13:24:31;4.45;;;1.42;;
40827;SDS011;26549;50.918;5.338;2023-12-22T13:27:03;2.00;;;1.33;;
40827;SDS011;26549;50.918;5.338;2023-12-22T13:29:41;3.58;;;0.80;;
40827;SDS011;26549;50.918;5.338;2023-12-22T13:32:08;2.63;;;0.57;;
40827;SDS011;26549;50.918;5.338;2023-12-22T13:34:46;5.22;;;0.90;;
40827;SDS011;26549;50.918;5.338;2023-12-22T13:37:13;3.08;;;1.05;;
40827;SDS011;26549;50.918;5.338;2023-12-22T13:39:39;6.97;;;1.02;;
40827;SDS011;26549;50.918;5.338;2023-12-22T13:42:04;7.22;;;0.70;;
40827;SDS011;26549;50.918;5.338;2023-12-22T13:44:30;2.35;;;0.60;;
40827;SDS011;26549;50.918;5.338;2023-12-22T13:46:56;3.08;;;0.75;;
40827;SDS011;26549;50.918;5.338;2023-12-22T13:49:32;0.80;;;0.50;;
40827;SDS011;26549;50.918;5.338;2023-12-22T13:51:59;6.22;;;1.73;;
40827;SDS011;26549;50.918;5.338;2023-12-22T13:54:31;2.25;;;1.20;;
40827;SDS011;26549;50.918;5.338;2023-12-22T13:56:58;2.90;;;0.85;;
40827;SDS011;26549;50.918;5.338;2023-12-22T13:59:33;2.75;;;0.60;;
40827;SDS011;26549;50.918;5.338;2023-12-22T14:01:59;3.53;;;0.85;;
40827;SDS011;26549;50.918;5.338;2023-12-22T14:04:26;2.60;;;0.73;;
40827;SDS011;26549;50.918;5.338;2023-12-22T14:06:52;2.70;;;0.95;;
40827;SDS011;26549;50.918;5.338;2023-12-22T14:09:18;5.88;;;1.10;;
40827;SDS011;26549;50.918;5.338;2023-12-22T14:11:49;3.63;;;1.30;;
40827;SDS011;26549;50.918;5.338;2023-12-22T14:14:14;2.38;;;0.80;;
40827;SDS011;26549;50.918;5.338;2023-12-22T14:16:42;2.58;;;1.00;;
40827;SDS011;26549;50.918;5.338;2023-12-22T14:19:07;4.35;;;1.20;;
40827;SDS011;26549;50.918;5.338;2023-12-22T14:21:33;2.88;;;0.65;;
40827;SDS011;26549;50.918;5.338;2023-12-22T14:23:59;1.98;;;0.80;;
40827;SDS011;26549;50.918;5.338;2023-12-22T14:26:25;2.08;;;0.57;;
40827;SDS011;26549;50.918;5.338;2023-12-22T14:28:50;1.08;;;0.70;;
40827;SDS011;26549;50.918;5.338;2023-12-22T14:31:17;3.00;;;1.00;;
40827;SDS011;26549;50.918;5.338;2023-12-22T14:33:43;2.58;;;1.52;;
40827;SDS011;26549;50.918;5.338;2023-12-22T14:36:08;2.63;;;0.90;;
40827;SDS011;26549;50.918;5.338;2023-12-22T14:38:34;1.90;;;0.60;;
40827;SDS011;26549;50.918;5.338;2023-12-22T14:41:00;3.13;;;0.80;;
40827;SDS011;26549;50.918;5.338;2023-12-22T14:43:27;1.67;;;0.80;;
40827;SDS011;26549;50.918;5.338;2023-12-22T14:45:54;1.00;;;0.73;;
40827;SDS011;26549;50.918;5.338;2023-12-22T14:48:20;3.30;;;0.65;;
40827;SDS011;26549;50.918;5.338;2023-12-22T14:50:45;4.65;;;1.15;;
40827;SDS011;26549;50.918;5.338;2023-12-22T14:53:11;2.88;;;0.98;;
40827;SDS011;26549;50.918;5.338;2023-12-22T14:55:41;2.88;;;0.80;;
40827;SDS011;26549;50.918;5.338;2023-12-22T14:58:07;0.80;;;0.70;;
40827;SDS011;26549;50.918;5.338;2023-12-22T15:00:35;2.78;;;0.90;;
40827;SDS011;26549;50.918;5.338;2023-12-22T15:03:01;1.63;;;0.93;;